createdAt,value
2018-04-25T00:00:47.049Z,99.90
2018-04-25T00:03:13.934Z,99.90
2018-04-25T00:05:40.925Z,99.90
2018-04-25T00:08:07.877Z,99.90
2018-04-25T00:10:34.750Z,99.90
2018-04-25T00:13:02.547Z,99.90
2018-04-25T00:15:29.512Z,99.90
2018-04-25T00:17:56.904Z,99.90
2018-04-25T00:20:23.867Z,99.90
2018-04-25T00:22:50.869Z,99.90
2018-04-25T00:25:18.174Z,99.90
2018-04-25T00:27:45.804Z,99.90
2018-04-25T00:30:12.745Z,99.90
2018-04-25T00:32:39.703Z,99.90
2018-04-25T00:35:06.636Z,99.90
2018-04-25T00:37:33.523Z,99.90
2018-04-25T00:40:01.203Z,99.90
2018-04-25T00:42:28.664Z,99.90
2018-04-25T00:44:55.677Z,99.90
2018-04-25T00:47:22.709Z,99.90
2018-04-25T00:49:49.718Z,99.90
2018-04-25T00:52:16.690Z,99.90
2018-04-25T00:54:43.733Z,99.90
2018-04-25T00:57:13.206Z,99.90
2018-04-25T00:59:40.114Z,99.90
2018-04-25T01:02:07.179Z,99.90
2018-04-25T01:04:34.245Z,99.90
2018-04-25T01:07:01.143Z,99.90
2018-04-25T01:09:28.191Z,99.90
2018-04-25T01:11:55.210Z,99.90
2018-04-25T01:14:22.345Z,99.90
2018-04-25T01:16:49.341Z,99.90
2018-04-25T01:19:16.304Z,99.90
2018-04-25T01:21:43.342Z,99.90
2018-04-25T01:24:10.369Z,99.90
2018-04-25T01:26:37.367Z,99.90
2018-04-25T01:29:06.994Z,99.90
2018-04-25T01:31:51.988Z,99.90
2018-04-25T01:34:36.681Z,99.90
2018-04-25T01:37:05.534Z,99.90
2018-04-25T01:39:40.862Z,99.90
2018-04-25T01:42:16.900Z,99.90
2018-04-25T01:44:59.598Z,99.90
2018-04-25T01:47:30.459Z,99.90
2018-04-25T01:50:16.173Z,99.90
2018-04-25T01:52:55.320Z,99.90
2018-04-25T01:55:34.013Z,99.90
2018-04-25T01:58:12.957Z,99.90
2018-04-25T02:00:52.031Z,99.90
2018-04-25T02:03:25.833Z,99.90
2018-04-25T02:05:53.298Z,99.90
2018-04-25T02:08:20.214Z,99.90
2018-04-25T02:10:47.145Z,99.90
2018-04-25T02:13:14.170Z,99.90
2018-04-25T02:15:41.126Z,99.90
2018-04-25T02:18:08.014Z,99.90
2018-04-25T02:20:34.917Z,99.90
2018-04-25T02:23:01.858Z,99.90
2018-04-25T02:25:28.748Z,99.90
2018-04-25T02:27:55.681Z,99.90
2018-04-25T02:30:22.550Z,99.90
2018-04-25T02:32:49.498Z,99.90
2018-04-25T02:35:16.539Z,99.90
2018-04-25T02:37:43.487Z,99.90
2018-04-25T02:40:10.420Z,99.90
2018-04-25T02:42:37.345Z,99.90
2018-04-25T02:45:04.231Z,99.90
2018-04-25T02:47:31.240Z,99.90
2018-04-25T02:49:58.118Z,99.90
2018-04-25T02:52:24.991Z,99.90
2018-04-25T02:54:52.673Z,99.90
2018-04-25T02:57:19.542Z,99.90
2018-04-25T02:59:46.507Z,99.90
2018-04-25T03:02:13.606Z,99.90
2018-04-25T03:04:40.535Z,99.90
2018-04-25T03:07:08.162Z,99.90
2018-04-25T03:09:35.100Z,99.90
2018-04-25T03:12:01.977Z,99.90
2018-04-25T03:14:29.009Z,99.90
2018-04-25T03:16:56.014Z,99.90
2018-04-25T03:19:22.846Z,99.90
2018-04-25T03:21:49.785Z,99.90
2018-04-25T03:24:16.643Z,99.90
2018-04-25T03:26:43.577Z,99.90
2018-04-25T03:29:11.222Z,99.90
2018-04-25T03:31:38.886Z,99.90
2018-04-25T03:34:06.497Z,99.90
2018-04-25T03:36:33.434Z,99.90
2018-04-25T03:39:00.291Z,99.90
2018-04-25T03:41:27.217Z,99.90
2018-04-25T03:43:54.083Z,99.90
2018-04-25T03:46:20.977Z,99.90
2018-04-25T03:48:48.688Z,99.90
2018-04-25T03:51:15.577Z,99.90
2018-04-25T03:53:42.446Z,99.90
2018-04-25T03:56:09.377Z,99.90
2018-04-25T03:58:37.061Z,99.90
2018-04-25T04:01:04.000Z,99.90
2018-04-25T04:03:31.647Z,99.90
2018-04-25T04:05:59.294Z,99.90
2018-04-25T04:08:27.166Z,99.90
2018-04-25T04:10:54.032Z,99.90
2018-04-25T04:13:21.716Z,99.90
2018-04-25T04:15:48.608Z,99.90
2018-04-25T04:18:15.531Z,99.90
2018-04-25T04:20:42.397Z,99.90
2018-04-25T04:23:09.414Z,99.90
2018-04-25T04:25:36.738Z,99.90
2018-04-25T04:28:04.329Z,99.90
2018-04-25T04:30:31.289Z,99.90
2018-04-25T04:32:58.254Z,99.90
2018-04-25T04:35:33.074Z,99.90
2018-04-25T04:38:00.594Z,99.90
2018-04-25T04:40:47.893Z,99.90
2018-04-25T04:43:15.768Z,99.90
2018-04-25T04:45:43.284Z,99.90
2018-04-25T04:48:10.235Z,99.90
2018-04-25T04:50:38.557Z,99.90
2018-04-25T04:53:05.497Z,99.90
2018-04-25T04:55:33.170Z,99.90
2018-04-25T04:58:00.800Z,99.90
2018-04-25T05:00:27.843Z,99.90
2018-04-25T05:02:54.799Z,99.90
2018-04-25T05:05:21.973Z,99.90
2018-04-25T05:07:58.452Z,99.90
2018-04-25T05:10:38.321Z,99.90
2018-04-25T05:13:09.268Z,99.90
2018-04-25T05:15:37.229Z,99.90
2018-04-25T05:18:07.669Z,99.90
2018-04-25T05:20:34.803Z,99.90
2018-04-25T05:23:01.673Z,99.90
2018-04-25T05:25:28.622Z,99.90
2018-04-25T05:27:55.570Z,99.90
2018-04-25T05:30:22.438Z,99.90
2018-04-25T05:32:49.392Z,99.90
2018-04-25T05:35:16.286Z,99.90
2018-04-25T05:37:43.155Z,99.90
2018-04-25T05:40:10.098Z,99.90
2018-04-25T05:42:36.948Z,99.90
2018-04-25T05:45:03.904Z,99.90
2018-04-25T05:47:31.737Z,99.90
2018-04-25T05:49:58.699Z,99.90
2018-04-25T05:52:25.645Z,99.90
2018-04-25T05:54:52.524Z,99.90
2018-04-25T05:57:19.469Z,99.90
2018-04-25T05:59:46.381Z,99.90
2018-04-25T06:02:13.305Z,99.90
2018-04-25T06:04:40.164Z,99.90
2018-04-25T06:07:07.211Z,99.90
2018-04-25T06:09:34.976Z,99.90
2018-04-25T06:12:01.915Z,99.90
2018-04-25T06:14:28.765Z,99.90
2018-04-25T06:16:55.701Z,99.90
2018-04-25T06:19:22.584Z,99.90
2018-04-25T06:21:49.527Z,99.90
2018-04-25T06:24:16.454Z,99.90
2018-04-25T06:26:43.383Z,99.90
2018-04-25T06:29:10.281Z,99.90
2018-04-25T06:31:37.613Z,99.90
2018-04-25T06:34:04.537Z,99.90
2018-04-25T06:36:31.453Z,99.90
2018-04-25T06:38:59.119Z,99.90
2018-04-25T06:41:27.709Z,99.90
2018-04-25T06:43:54.642Z,99.90
2018-04-25T06:46:22.253Z,99.90
2018-04-25T06:48:49.376Z,99.90
2018-04-25T06:51:16.262Z,99.90
2018-04-25T06:53:43.197Z,99.90
2018-04-25T06:56:10.046Z,99.90
2018-04-25T06:58:36.946Z,99.90
2018-04-25T07:01:04.899Z,99.90
2018-04-25T07:03:31.934Z,99.90
2018-04-25T07:05:58.950Z,99.90
2018-04-25T07:08:25.813Z,99.90
2018-04-25T07:10:52.769Z,99.90
2018-04-25T07:13:19.803Z,99.90
2018-04-25T07:15:46.649Z,99.90
2018-04-25T07:18:13.569Z,99.90
2018-04-25T07:20:41.678Z,99.90
2018-04-25T07:23:08.902Z,99.90
2018-04-25T07:25:35.773Z,99.90
2018-04-25T07:28:02.705Z,99.90
2018-04-25T07:30:29.580Z,99.90
2018-04-25T07:32:56.511Z,99.90
2018-04-25T07:35:23.422Z,99.90
2018-04-25T07:37:50.360Z,99.90
2018-04-25T07:40:17.292Z,99.90
2018-04-25T07:42:45.009Z,99.90
2018-04-25T07:45:11.933Z,99.90
2018-04-25T07:47:38.813Z,99.90
2018-04-25T07:50:05.757Z,99.90
2018-04-25T07:52:32.615Z,99.90
2018-04-25T07:54:59.528Z,99.90
2018-04-25T07:57:26.400Z,99.90
2018-04-25T07:59:53.312Z,99.90
2018-04-25T08:02:20.175Z,99.90
2018-04-25T08:04:47.123Z,99.90
2018-04-25T08:07:14.085Z,99.90
2018-04-25T08:09:40.961Z,99.90
2018-04-25T08:12:19.982Z,99.10
2018-04-25T08:14:59.728Z,96.70
2018-04-25T08:17:39.513Z,97.50
2018-04-25T08:20:18.580Z,97.50
2018-04-25T08:22:45.453Z,96.90
2018-04-25T08:25:13.113Z,97.20
2018-04-25T08:27:39.965Z,97.20
2018-04-25T08:30:06.898Z,97.30
2018-04-25T08:32:34.572Z,96.60
2018-04-25T08:35:02.158Z,96.20
2018-04-25T08:37:29.218Z,96.20
2018-04-25T08:39:56.098Z,95.40
2018-04-25T08:42:23.076Z,94.50
2018-04-25T08:44:50.064Z,94.80
2018-04-25T08:47:16.886Z,93.60
2018-04-25T08:49:43.830Z,92.80
2018-04-25T08:52:10.689Z,92.90
2018-04-25T08:54:37.626Z,91.90
2018-04-25T08:57:04.565Z,90.40
2018-04-25T08:59:31.410Z,90.00
2018-04-25T09:01:58.370Z,90.10
2018-04-25T09:04:25.353Z,91.40
2018-04-25T09:06:52.982Z,91.50
2018-04-25T09:09:19.897Z,91.30
2018-04-25T09:11:46.769Z,90.40
2018-04-25T09:14:13.711Z,89.10
2018-04-25T09:16:40.657Z,88.40
2018-04-25T09:19:08.104Z,88.00
2018-04-25T09:21:35.037Z,86.60
2018-04-25T09:24:01.961Z,86.10
2018-04-25T09:26:29.562Z,83.90
2018-04-25T09:28:56.474Z,83.90
2018-04-25T09:31:24.073Z,84.00
2018-04-25T09:33:51.013Z,83.60
2018-04-25T09:36:18.186Z,83.00
2018-04-25T09:38:46.581Z,80.60
2018-04-25T09:41:13.513Z,80.50
2018-04-25T09:43:40.364Z,79.30
2018-04-25T09:46:07.292Z,76.50
2018-04-25T09:48:34.141Z,75.20
2018-04-25T09:51:04.049Z,75.20
2018-04-25T09:53:33.961Z,73.10
2018-04-25T09:56:00.948Z,73.10
2018-04-25T09:58:27.805Z,75.90
2018-04-25T10:00:56.736Z,79.80
2018-04-25T10:03:23.691Z,80.00
2018-04-25T10:05:51.585Z,77.30
2018-04-25T10:08:18.524Z,76.60
2018-04-25T10:10:45.500Z,79.00
2018-04-25T10:13:13.129Z,80.30
2018-04-25T10:15:40.092Z,80.10
2018-04-25T10:18:07.050Z,79.80
2018-04-25T10:20:37.221Z,80.50
2018-04-25T10:23:04.541Z,82.40
2018-04-25T10:25:33.674Z,83.30
2018-04-25T10:28:02.591Z,83.30
2018-04-25T10:30:38.501Z,83.20
2018-04-25T10:33:09.069Z,85.00
2018-04-25T10:35:43.287Z,83.50
2018-04-25T10:38:15.505Z,83.20
2018-04-25T10:40:45.503Z,84.60
2018-04-25T10:43:13.393Z,80.30
2018-04-25T10:45:42.793Z,79.90
2018-04-25T10:48:12.385Z,80.90
2018-04-25T10:50:44.620Z,81.80
2018-04-25T10:53:11.885Z,78.90
2018-04-25T10:56:05.716Z,77.70
2018-04-25T10:58:33.775Z,78.30
2018-04-25T11:01:03.166Z,79.30
2018-04-25T11:03:30.121Z,79.20
2018-04-25T11:05:57.629Z,78.40
2018-04-25T11:08:24.668Z,77.60
2018-04-25T11:10:51.700Z,77.90
2018-04-25T11:13:19.049Z,78.70
2018-04-25T11:15:56.553Z,80.10
2018-04-25T11:18:25.812Z,81.70
2018-04-25T11:23:39.429Z,79.30
2018-04-25T11:26:13.548Z,80.10
2018-04-25T11:28:43.903Z,82.60
2018-04-25T11:34:08.854Z,82.40
2018-04-25T11:36:48.337Z,83.00
2018-04-25T11:39:16.989Z,83.40
2018-04-25T11:42:03.146Z,84.10
2018-04-25T11:44:32.893Z,84.00
2018-04-25T11:47:02.505Z,85.30
2018-04-25T11:52:10.447Z,83.10
2018-04-25T11:54:46.878Z,84.50
2018-04-25T11:57:17.488Z,85.80
2018-04-25T11:59:50.290Z,85.90
2018-04-25T12:02:27.751Z,87.20
2018-04-25T12:05:02.605Z,86.80
2018-04-25T12:07:33.256Z,88.00
2018-04-25T12:10:05.014Z,88.80
2018-04-25T12:12:46.860Z,87.30
2018-04-25T12:15:26.928Z,86.90
2018-04-25T12:18:09.403Z,86.70
2018-04-25T12:20:41.709Z,87.30
2018-04-25T12:23:17.940Z,88.30
2018-04-25T12:28:39.712Z,89.80
2018-04-25T12:31:22.525Z,90.80
2018-04-25T12:33:58.765Z,91.10
2018-04-25T12:39:15.065Z,91.20
2018-04-25T12:41:55.635Z,90.60
2018-04-25T12:44:24.143Z,90.70
2018-04-25T12:46:55.744Z,91.20
2018-04-25T12:49:25.833Z,91.40
2018-04-25T12:51:53.040Z,91.40
2018-04-25T12:54:25.419Z,92.10
2018-04-25T12:56:55.381Z,92.80
2018-04-25T12:59:22.553Z,92.50
2018-04-25T13:01:55.726Z,92.50
2018-04-25T13:04:31.761Z,92.50
2018-04-25T13:07:01.661Z,92.20
2018-04-25T13:09:34.011Z,92.20
2018-04-25T13:12:02.878Z,92.20
2018-04-25T13:14:32.250Z,92.80
2018-04-25T13:17:00.811Z,93.30
2018-04-25T13:19:41.020Z,93.30
2018-04-25T13:22:10.982Z,93.60
2018-04-25T13:24:39.490Z,93.40
2018-04-25T13:27:06.416Z,93.40
2018-04-25T13:29:33.354Z,93.70
2018-04-25T13:32:07.633Z,93.50
2018-04-25T13:34:37.295Z,93.00
2018-04-25T13:37:07.774Z,93.80
2018-04-25T13:39:37.794Z,93.50
2018-04-25T13:42:06.061Z,93.80
2018-04-25T13:44:33.730Z,94.40
2018-04-25T13:47:00.641Z,94.40
2018-04-25T13:49:33.173Z,94.30
2018-04-25T13:52:03.034Z,94.30
2018-04-25T13:54:32.747Z,94.00
2018-04-25T13:56:59.697Z,93.50
2018-04-25T13:59:27.349Z,93.60
2018-04-25T14:01:55.043Z,94.20
2018-04-25T14:04:21.900Z,94.20
2018-04-25T14:06:48.902Z,94.40
2018-04-25T14:09:27.939Z,94.60
2018-04-25T14:11:58.675Z,94.70
2018-04-25T14:14:26.341Z,92.70
2018-04-25T14:16:56.390Z,92.70
2018-04-25T14:19:23.980Z,93.00
2018-04-25T14:21:52.959Z,92.10
2018-04-25T14:24:19.945Z,91.70
2018-04-25T14:26:48.209Z,92.00
2018-04-25T14:29:15.157Z,92.40
2018-04-25T14:31:42.103Z,93.20
2018-04-25T14:34:09.045Z,92.00
2018-04-25T14:36:35.938Z,91.90
2018-04-25T14:39:02.970Z,92.40
2018-04-25T14:41:30.576Z,91.80
2018-04-25T14:43:57.450Z,91.80
2018-04-25T14:46:24.392Z,91.60
2018-04-25T14:48:51.257Z,90.60
2018-04-25T14:51:18.931Z,90.70
2018-04-25T14:53:46.538Z,91.30
2018-04-25T14:56:13.432Z,91.30
2018-04-25T14:58:41.184Z,90.70
2018-04-25T15:01:08.891Z,90.80
2018-04-25T15:03:41.889Z,90.80
2018-04-25T15:06:11.423Z,90.20
2018-04-25T15:08:41.913Z,90.50
2018-04-25T15:11:08.761Z,91.00
2018-04-25T15:13:35.617Z,90.70
2018-04-25T15:16:02.641Z,90.80
2018-04-25T15:18:29.608Z,91.10
2018-04-25T15:20:56.536Z,90.60
2018-04-25T15:23:23.516Z,91.20
2018-04-25T15:25:50.461Z,93.20
2018-04-25T15:28:17.400Z,94.20
2018-04-25T15:30:44.343Z,95.00
2018-04-25T15:33:11.685Z,95.30
2018-04-25T15:35:38.739Z,95.60
2018-04-25T15:38:05.615Z,95.30
2018-04-25T15:40:32.542Z,95.10
2018-04-25T15:42:59.417Z,96.40
2018-04-25T15:45:26.369Z,98.00
2018-04-25T15:48:00.872Z,99.00
2018-04-25T15:50:29.614Z,99.70
2018-04-25T15:53:00.358Z,99.90
2018-04-25T15:55:28.403Z,99.90
2018-04-25T15:57:55.863Z,99.90
2018-04-25T16:00:26.995Z,99.90
2018-04-25T16:02:58.033Z,99.90
2018-04-25T16:05:26.559Z,99.90
2018-04-25T16:08:07.308Z,99.90
2018-04-25T16:13:20.784Z,99.90
2018-04-25T16:15:49.791Z,99.90
2018-04-25T16:18:31.807Z,99.90
2018-04-25T16:21:00.025Z,99.90
2018-04-25T16:23:28.654Z,99.90
2018-04-25T16:25:56.076Z,99.90
2018-04-25T16:28:23.086Z,99.90
2018-04-25T16:31:04.146Z,99.90
2018-04-25T16:33:41.202Z,99.90
2018-04-25T16:36:20.312Z,99.90
2018-04-25T16:38:51.903Z,99.90
2018-04-25T16:41:27.041Z,99.90
2018-04-25T16:43:54.869Z,99.90
2018-04-25T16:46:22.632Z,99.90
2018-04-25T16:48:58.955Z,99.90
2018-04-25T16:51:38.284Z,99.90
2018-04-25T16:54:19.457Z,99.90
2018-04-25T16:56:59.600Z,99.90
2018-04-25T16:59:41.161Z,99.90
2018-04-25T17:02:08.957Z,99.90
2018-04-25T17:04:35.911Z,99.90
2018-04-25T17:07:02.792Z,99.90
2018-04-25T17:09:29.854Z,99.90
2018-04-25T17:11:56.731Z,99.90
2018-04-25T17:14:23.709Z,99.90
2018-04-25T17:16:50.648Z,99.90
2018-04-25T17:19:17.585Z,99.90
2018-04-25T17:21:44.437Z,99.90
2018-04-25T17:24:11.424Z,99.90
2018-04-25T17:26:38.348Z,99.90
2018-04-25T17:29:05.402Z,99.90
2018-04-25T17:31:32.813Z,99.90
2018-04-25T17:34:00.354Z,99.90
2018-04-25T17:36:28.294Z,99.90
2018-04-25T17:38:55.505Z,99.90
2018-04-25T17:41:22.870Z,99.90
2018-04-25T17:43:50.720Z,99.90
2018-04-25T17:46:17.654Z,99.90
2018-04-25T17:48:44.595Z,99.90
2018-04-25T17:51:12.185Z,99.90
2018-04-25T17:53:39.126Z,99.90
2018-04-25T17:56:06.006Z,99.90
2018-04-25T17:58:33.714Z,99.90
2018-04-25T18:01:00.582Z,99.90
2018-04-25T18:03:27.585Z,99.90
2018-04-25T18:05:54.454Z,99.90
2018-04-25T18:08:21.331Z,99.90
2018-04-25T18:10:48.265Z,99.90
2018-04-25T18:13:15.132Z,99.90
2018-04-25T18:15:42.129Z,99.90
2018-04-25T18:18:09.007Z,99.90
2018-04-25T18:20:35.935Z,99.90
2018-04-25T18:23:02.824Z,99.90
2018-04-25T18:25:29.756Z,99.90
2018-04-25T18:27:56.605Z,99.90
2018-04-25T18:30:23.553Z,99.90
2018-04-25T18:32:50.446Z,99.90
2018-04-25T18:35:18.051Z,99.90
2018-04-25T18:37:44.983Z,99.90
2018-04-25T18:40:11.929Z,99.90
2018-04-25T18:42:38.789Z,99.90
2018-04-25T18:45:05.656Z,99.90
2018-04-25T18:47:32.589Z,99.90
2018-04-25T18:49:59.438Z,99.90
2018-04-25T18:52:26.346Z,99.90
2018-04-25T18:54:53.273Z,99.90
2018-04-25T18:57:20.450Z,99.90
2018-04-25T19:00:00.407Z,99.90
2018-04-25T19:02:28.191Z,99.90
2018-04-25T19:04:55.287Z,99.90
2018-04-25T19:07:23.184Z,99.90
2018-04-25T19:09:55.577Z,99.90
2018-04-25T19:12:32.139Z,99.90
2018-04-25T19:15:04.746Z,99.90
2018-04-25T19:17:37.637Z,99.90
2018-04-25T19:20:10.830Z,99.90
2018-04-25T19:22:44.016Z,99.90
2018-04-25T19:25:22.510Z,99.90
2018-04-25T19:27:57.557Z,99.90
2018-04-25T19:30:30.588Z,99.90
2018-04-25T19:33:04.175Z,99.90
2018-04-25T19:35:37.341Z,99.90
2018-04-25T19:38:10.772Z,99.90
2018-04-25T19:40:44.251Z,99.90
2018-04-25T19:43:17.435Z,99.90
2018-04-25T19:45:50.664Z,99.90
2018-04-25T19:48:25.664Z,99.90
2018-04-25T19:50:58.543Z,99.90
2018-04-25T19:53:31.927Z,99.90
2018-04-25T19:56:05.061Z,99.90
2018-04-25T19:58:38.358Z,99.90
2018-04-25T20:01:18.397Z,99.90
2018-04-25T20:03:59.173Z,99.90
2018-04-25T20:06:39.075Z,99.90
2018-04-25T20:09:20.713Z,99.90
2018-04-25T20:12:02.308Z,99.90
2018-04-25T20:14:43.196Z,99.90
2018-04-25T20:17:23.580Z,99.90
2018-04-25T20:20:05.143Z,99.90
2018-04-25T20:22:44.847Z,99.90
2018-04-25T20:25:25.611Z,99.90
2018-04-25T20:28:05.612Z,99.90
2018-04-25T20:30:46.510Z,99.90
2018-04-25T20:33:26.482Z,99.90
2018-04-25T20:36:07.203Z,99.90
2018-04-25T20:38:34.924Z,99.90
2018-04-25T20:41:01.869Z,99.90
2018-04-25T20:43:28.736Z,99.90
2018-04-25T20:45:55.610Z,99.90
2018-04-25T20:48:22.529Z,99.90
2018-04-25T20:50:49.398Z,99.90
2018-04-25T20:53:16.332Z,99.90
2018-04-25T20:55:43.209Z,99.90
2018-04-25T20:58:10.298Z,99.90
2018-04-25T21:00:37.212Z,99.90
2018-04-25T21:03:05.711Z,99.90
2018-04-25T21:05:32.600Z,99.90
2018-04-25T21:07:59.457Z,99.90
2018-04-25T21:10:27.129Z,99.90
2018-04-25T21:12:54.803Z,99.90
2018-04-25T21:15:21.729Z,99.90
2018-04-25T21:17:48.741Z,99.90
2018-04-25T21:20:15.680Z,99.90
2018-04-25T21:22:42.553Z,99.90
2018-04-25T21:25:09.468Z,99.90
2018-04-25T21:27:36.333Z,99.90
2018-04-25T21:30:03.422Z,99.90
2018-04-25T21:32:30.393Z,99.90
2018-04-25T21:34:57.347Z,99.90
2018-04-25T21:37:24.506Z,99.90
2018-04-25T21:39:51.436Z,99.90
2018-04-25T21:42:18.318Z,99.90
2018-04-25T21:44:55.545Z,99.90
2018-04-25T21:47:33.765Z,99.90
2018-04-25T21:50:01.536Z,99.90
2018-04-25T21:52:28.491Z,99.90
2018-04-25T21:55:08.965Z,99.90
2018-04-25T21:57:36.709Z,99.90
2018-04-25T22:00:03.734Z,99.90
2018-04-25T22:02:31.345Z,99.90
2018-04-25T22:04:58.363Z,99.90
2018-04-25T22:07:25.240Z,99.90
2018-04-25T22:09:52.270Z,99.90
2018-04-25T22:12:19.148Z,99.90
2018-04-25T22:14:46.021Z,99.90
2018-04-25T22:17:13.757Z,99.90
2018-04-25T22:19:40.709Z,99.90
2018-04-25T22:22:12.493Z,99.90
2018-04-25T22:24:40.095Z,99.90
2018-04-25T22:27:06.956Z,99.90
2018-04-25T22:29:40.388Z,99.90
2018-04-25T22:32:07.278Z,99.90
2018-04-25T22:34:34.232Z,99.90
2018-04-25T22:37:01.166Z,99.90
2018-04-25T22:39:28.295Z,99.90
2018-04-25T22:41:55.258Z,99.90
2018-04-25T22:44:22.473Z,99.90
2018-04-25T22:46:50.530Z,99.90
2018-04-25T22:49:17.487Z,99.90
2018-04-25T22:51:45.196Z,99.90
2018-04-25T22:54:12.262Z,99.90
2018-04-25T22:56:40.669Z,99.90
2018-04-25T22:59:07.595Z,99.90
2018-04-25T23:01:34.592Z,99.90
2018-04-25T23:04:01.446Z,99.90
2018-04-25T23:06:28.306Z,99.90
2018-04-25T23:08:58.584Z,99.90
2018-04-25T23:11:30.781Z,99.90
2018-04-25T23:13:57.701Z,99.90
2018-04-25T23:16:25.689Z,99.90
2018-04-25T23:18:52.750Z,99.90
2018-04-25T23:21:19.688Z,99.90
2018-04-25T23:23:46.539Z,99.90
2018-04-25T23:26:13.442Z,99.90
2018-04-25T23:28:40.357Z,99.90
2018-04-25T23:31:07.265Z,99.90
2018-04-25T23:33:34.178Z,99.90
2018-04-25T23:36:03.555Z,99.90
2018-04-25T23:38:31.512Z,99.90
2018-04-25T23:40:58.823Z,99.90
2018-04-25T23:43:25.791Z,99.90
2018-04-25T23:45:52.737Z,99.90
2018-04-25T23:48:19.664Z,99.90
2018-04-25T23:50:46.522Z,99.90
2018-04-25T23:53:13.537Z,99.90
2018-04-25T23:55:40.388Z,99.90
2018-04-25T23:58:07.296Z,99.90
